sensor_id;sensor_type;location;lat;lon;timestamp;temperature;humidity
8994;DHT22;4532;50.886;4.700;2024-02-26T00:01:15;10.60;71.30
8994;DHT22;4532;50.886;4.700;2024-02-26T00:03:42;10.50;71.10
8994;DHT22;4532;50.886;4.700;2024-02-26T00:06:14;10.50;71.20
8994;DHT22;4532;50.886;4.700;2024-02-26T00:08:46;10.50;71.30
8994;DHT22;4532;50.886;4.700;2024-02-26T00:11:13;10.50;71.30
8994;DHT22;4532;50.886;4.700;2024-02-26T00:13:48;10.50;71.20
8994;DHT22;4532;50.886;4.700;2024-02-26T00:16:18;10.40;71.20
8994;DHT22;4532;50.886;4.700;2024-02-26T00:18:48;10.40;71.30
8994;DHT22;4532;50.886;4.700;2024-02-26T00:21:16;10.40;71.30
8994;DHT22;4532;50.886;4.700;2024-02-26T00:23:44;10.40;71.30
8994;DHT22;4532;50.886;4.700;2024-02-26T00:26:13;10.30;71.40
8994;DHT22;4532;50.886;4.700;2024-02-26T00:28:44;10.30;71.30
8994;DHT22;4532;50.886;4.700;2024-02-26T00:31:12;10.30;71.40
8994;DHT22;4532;50.886;4.700;2024-02-26T00:33:39;10.20;71.60
8994;DHT22;4532;50.886;4.700;2024-02-26T00:36:06;10.20;71.40
8994;DHT22;4532;50.886;4.700;2024-02-26T00:38:34;10.20;71.60
8994;DHT22;4532;50.886;4.700;2024-02-26T00:41:02;10.10;71.50
8994;DHT22;4532;50.886;4.700;2024-02-26T00:43:31;10.10;71.50
8994;DHT22;4532;50.886;4.700;2024-02-26T00:46:03;10.10;71.60
8994;DHT22;4532;50.886;4.700;2024-02-26T00:48:30;10.10;71.60
8994;DHT22;4532;50.886;4.700;2024-02-26T00:50:58;10.10;71.60
8994;DHT22;4532;50.886;4.700;2024-02-26T00:53:25;10.10;71.80
8994;DHT22;4532;50.886;4.700;2024-02-26T00:55:52;10.10;71.70
8994;DHT22;4532;50.886;4.700;2024-02-26T00:58:22;10.10;71.60
8994;DHT22;4532;50.886;4.700;2024-02-26T01:00:54;10.00;71.70
8994;DHT22;4532;50.886;4.700;2024-02-26T01:03:22;10.10;71.80
8994;DHT22;4532;50.886;4.700;2024-02-26T01:05:49;10.00;71.80
8994;DHT22;4532;50.886;4.700;2024-02-26T01:08:23;10.00;71.80
8994;DHT22;4532;50.886;4.700;2024-02-26T01:10:53;10.00;71.90
8994;DHT22;4532;50.886;4.700;2024-02-26T01:13:20;10.00;71.90
8994;DHT22;4532;50.886;4.700;2024-02-26T01:15:47;10.00;71.90
8994;DHT22;4532;50.886;4.700;2024-02-26T01:18:15;10.00;71.90
8994;DHT22;4532;50.886;4.700;2024-02-26T01:20:45;10.00;71.90
8994;DHT22;4532;50.886;4.700;2024-02-26T01:23:14;10.00;71.90
8994;DHT22;4532;50.886;4.700;2024-02-26T01:25:43;9.90;71.90
8994;DHT22;4532;50.886;4.700;2024-02-26T01:28:19;9.90;71.90
8994;DHT22;4532;50.886;4.700;2024-02-26T01:30:46;9.90;71.90
8994;DHT22;4532;50.886;4.700;2024-02-26T01:33:13;9.80;71.90
8994;DHT22;4532;50.886;4.700;2024-02-26T01:35:45;9.90;72.10
8994;DHT22;4532;50.886;4.700;2024-02-26T01:38:16;9.90;72.10
8994;DHT22;4532;50.886;4.700;2024-02-26T01:40:46;9.80;72.00
8994;DHT22;4532;50.886;4.700;2024-02-26T01:43:13;9.80;72.40
8994;DHT22;4532;50.886;4.700;2024-02-26T01:45:42;9.80;72.10
8994;DHT22;4532;50.886;4.700;2024-02-26T01:48:09;9.80;72.20
8994;DHT22;4532;50.886;4.700;2024-02-26T01:50:38;9.70;72.30
8994;DHT22;4532;50.886;4.700;2024-02-26T01:53:05;9.70;72.20
8994;DHT22;4532;50.886;4.700;2024-02-26T01:55:33;9.70;72.20
8994;DHT22;4532;50.886;4.700;2024-02-26T01:58:01;9.70;72.30
8994;DHT22;4532;50.886;4.700;2024-02-26T02:00:30;9.70;72.30
8994;DHT22;4532;50.886;4.700;2024-02-26T02:03:04;9.60;72.40
8994;DHT22;4532;50.886;4.700;2024-02-26T02:05:35;9.60;72.40
8994;DHT22;4532;50.886;4.700;2024-02-26T02:08:12;9.60;72.40
8994;DHT22;4532;50.886;4.700;2024-02-26T02:10:42;9.60;72.50
8994;DHT22;4532;50.886;4.700;2024-02-26T02:13:10;9.60;72.60
8994;DHT22;4532;50.886;4.700;2024-02-26T02:15:39;9.60;72.60
8994;DHT22;4532;50.886;4.700;2024-02-26T02:18:09;9.60;72.70
8994;DHT22;4532;50.886;4.700;2024-02-26T02:20:36;9.60;73.00
8994;DHT22;4532;50.886;4.700;2024-02-26T02:23:04;9.60;72.70
8994;DHT22;4532;50.886;4.700;2024-02-26T02:25:33;9.60;72.60
8994;DHT22;4532;50.886;4.700;2024-02-26T02:28:05;9.60;72.70
8994;DHT22;4532;50.886;4.700;2024-02-26T02:30:35;9.60;72.70
8994;DHT22;4532;50.886;4.700;2024-02-26T02:33:03;9.60;73.00
8994;DHT22;4532;50.886;4.700;2024-02-26T02:35:33;9.60;72.70
8994;DHT22;4532;50.886;4.700;2024-02-26T02:38:03;9.60;72.80
8994;DHT22;4532;50.886;4.700;2024-02-26T02:40:30;9.60;72.70
8994;DHT22;4532;50.886;4.700;2024-02-26T02:43:02;9.60;72.70
8994;DHT22;4532;50.886;4.700;2024-02-26T02:45:31;9.60;72.80
8994;DHT22;4532;50.886;4.700;2024-02-26T02:48:01;9.60;74.00
8994;DHT22;4532;50.886;4.700;2024-02-26T02:50:30;9.50;72.80
8994;DHT22;4532;50.886;4.700;2024-02-26T02:53:00;9.50;72.80
8994;DHT22;4532;50.886;4.700;2024-02-26T02:55:28;9.50;72.80
8994;DHT22;4532;50.886;4.700;2024-02-26T02:57:57;9.50;73.00
8994;DHT22;4532;50.886;4.700;2024-02-26T03:00:27;9.50;73.10
8994;DHT22;4532;50.886;4.700;2024-02-26T03:02:54;9.40;76.90
8994;DHT22;4532;50.886;4.700;2024-02-26T03:05:28;9.40;76.60
8994;DHT22;4532;50.886;4.700;2024-02-26T03:07:56;9.40;76.30
8994;DHT22;4532;50.886;4.700;2024-02-26T03:10:23;9.40;75.60
8994;DHT22;4532;50.886;4.700;2024-02-26T03:12:54;9.40;73.40
8994;DHT22;4532;50.886;4.700;2024-02-26T03:15:23;9.40;73.20
8994;DHT22;4532;50.886;4.700;2024-02-26T03:17:50;9.40;73.20
8994;DHT22;4532;50.886;4.700;2024-02-26T03:20:18;9.40;73.20
8994;DHT22;4532;50.886;4.700;2024-02-26T03:22:47;9.40;73.20
8994;DHT22;4532;50.886;4.700;2024-02-26T03:25:16;9.40;73.40
8994;DHT22;4532;50.886;4.700;2024-02-26T03:27:44;9.40;73.30
8994;DHT22;4532;50.886;4.700;2024-02-26T03:30:11;9.40;73.30
8994;DHT22;4532;50.886;4.700;2024-02-26T03:32:43;9.30;73.30
8994;DHT22;4532;50.886;4.700;2024-02-26T03:35:10;9.40;73.30
8994;DHT22;4532;50.886;4.700;2024-02-26T03:37:39;9.40;73.30
8994;DHT22;4532;50.886;4.700;2024-02-26T03:40:07;9.30;73.30
8994;DHT22;4532;50.886;4.700;2024-02-26T03:42:37;9.30;73.50
8994;DHT22;4532;50.886;4.700;2024-02-26T03:45:05;9.40;73.30
8994;DHT22;4532;50.886;4.700;2024-02-26T03:47:32;9.40;73.40
8994;DHT22;4532;50.886;4.700;2024-02-26T03:50:01;9.30;73.40
8994;DHT22;4532;50.886;4.700;2024-02-26T03:52:31;9.30;73.40
8994;DHT22;4532;50.886;4.700;2024-02-26T03:55:00;9.30;73.50
8994;DHT22;4532;50.886;4.700;2024-02-26T03:57:27;9.30;73.40
8994;DHT22;4532;50.886;4.700;2024-02-26T03:59:55;9.30;73.40
8994;DHT22;4532;50.886;4.700;2024-02-26T04:02:25;9.30;73.40
8994;DHT22;4532;50.886;4.700;2024-02-26T04:04:55;9.30;73.40
8994;DHT22;4532;50.886;4.700;2024-02-26T04:07:22;9.30;73.40
8994;DHT22;4532;50.886;4.700;2024-02-26T04:09:52;9.30;73.50
8994;DHT22;4532;50.886;4.700;2024-02-26T04:12:23;9.30;73.50
8994;DHT22;4532;50.886;4.700;2024-02-26T04:14:51;9.30;73.60
8994;DHT22;4532;50.886;4.700;2024-02-26T04:17:18;9.30;73.60
8994;DHT22;4532;50.886;4.700;2024-02-26T04:19:45;9.30;73.60
8994;DHT22;4532;50.886;4.700;2024-02-26T04:22:14;9.30;73.50
8994;DHT22;4532;50.886;4.700;2024-02-26T04:24:42;9.30;73.60
8994;DHT22;4532;50.886;4.700;2024-02-26T04:27:09;9.30;74.50
8994;DHT22;4532;50.886;4.700;2024-02-26T04:29:37;9.30;73.50
8994;DHT22;4532;50.886;4.700;2024-02-26T04:32:04;9.30;73.50
8994;DHT22;4532;50.886;4.700;2024-02-26T04:34:34;9.30;73.90
8994;DHT22;4532;50.886;4.700;2024-02-26T04:37:09;9.30;73.70
8994;DHT22;4532;50.886;4.700;2024-02-26T04:39:39;9.20;73.60
8994;DHT22;4532;50.886;4.700;2024-02-26T04:42:11;9.30;73.80
8994;DHT22;4532;50.886;4.700;2024-02-26T04:44:40;9.20;73.70
8994;DHT22;4532;50.886;4.700;2024-02-26T04:47:10;9.20;73.80
8994;DHT22;4532;50.886;4.700;2024-02-26T04:49:40;9.20;73.90
8994;DHT22;4532;50.886;4.700;2024-02-26T04:52:10;9.30;74.20
8994;DHT22;4532;50.886;4.700;2024-02-26T04:54:39;9.20;73.80
8994;DHT22;4532;50.886;4.700;2024-02-26T04:57:09;9.20;73.90
8994;DHT22;4532;50.886;4.700;2024-02-26T04:59:36;9.20;73.90
8994;DHT22;4532;50.886;4.700;2024-02-26T05:02:11;9.20;73.70
8994;DHT22;4532;50.886;4.700;2024-02-26T05:04:40;9.20;74.00
8994;DHT22;4532;50.886;4.700;2024-02-26T05:07:07;9.20;73.80
8994;DHT22;4532;50.886;4.700;2024-02-26T05:09:37;9.20;73.90
8994;DHT22;4532;50.886;4.700;2024-02-26T05:12:04;9.20;74.10
8994;DHT22;4532;50.886;4.700;2024-02-26T05:14:32;9.10;74.00
8994;DHT22;4532;50.886;4.700;2024-02-26T05:16:59;9.10;73.90
8994;DHT22;4532;50.886;4.700;2024-02-26T05:19:31;9.10;74.00
8994;DHT22;4532;50.886;4.700;2024-02-26T05:21:59;9.10;74.10
8994;DHT22;4532;50.886;4.700;2024-02-26T05:24:26;9.10;74.10
8994;DHT22;4532;50.886;4.700;2024-02-26T05:26:53;9.10;74.40
8994;DHT22;4532;50.886;4.700;2024-02-26T05:29:21;9.10;74.30
8994;DHT22;4532;50.886;4.700;2024-02-26T05:31:51;9.10;74.20
8994;DHT22;4532;50.886;4.700;2024-02-26T05:34:18;9.10;74.20
8994;DHT22;4532;50.886;4.700;2024-02-26T05:36:45;9.10;74.30
8994;DHT22;4532;50.886;4.700;2024-02-26T05:39:15;9.10;74.20
8994;DHT22;4532;50.886;4.700;2024-02-26T05:41:46;9.00;74.30
8994;DHT22;4532;50.886;4.700;2024-02-26T05:44:16;9.00;74.50
8994;DHT22;4532;50.886;4.700;2024-02-26T05:46:45;9.00;74.50
8994;DHT22;4532;50.886;4.700;2024-02-26T05:49:13;9.00;74.40
8994;DHT22;4532;50.886;4.700;2024-02-26T05:51:42;9.00;74.60
8994;DHT22;4532;50.886;4.700;2024-02-26T05:54:14;8.90;74.60
8994;DHT22;4532;50.886;4.700;2024-02-26T05:56:41;8.90;74.70
8994;DHT22;4532;50.886;4.700;2024-02-26T05:59:13;8.90;74.30
8994;DHT22;4532;50.886;4.700;2024-02-26T06:01:44;8.90;74.40
8994;DHT22;4532;50.886;4.700;2024-02-26T06:04:12;8.90;74.60
8994;DHT22;4532;50.886;4.700;2024-02-26T06:06:39;8.90;74.90
8994;DHT22;4532;50.886;4.700;2024-02-26T06:09:10;8.90;74.60
8994;DHT22;4532;50.886;4.700;2024-02-26T06:11:38;8.90;74.50
8994;DHT22;4532;50.886;4.700;2024-02-26T06:14:08;8.90;74.70
8994;DHT22;4532;50.886;4.700;2024-02-26T06:16:36;8.90;74.90
8994;DHT22;4532;50.886;4.700;2024-02-26T06:19:04;8.80;75.00
8994;DHT22;4532;50.886;4.700;2024-02-26T06:21:31;8.80;74.90
8994;DHT22;4532;50.886;4.700;2024-02-26T06:23:58;8.80;75.00
8994;DHT22;4532;50.886;4.700;2024-02-26T06:26:28;8.80;74.80
8994;DHT22;4532;50.886;4.700;2024-02-26T06:28:56;8.80;74.70
8994;DHT22;4532;50.886;4.700;2024-02-26T06:31:25;8.80;75.00
8994;DHT22;4532;50.886;4.700;2024-02-26T06:33:54;8.80;75.00
8994;DHT22;4532;50.886;4.700;2024-02-26T06:36:23;8.80;74.90
8994;DHT22;4532;50.886;4.700;2024-02-26T06:38:50;8.80;75.00
8994;DHT22;4532;50.886;4.700;2024-02-26T06:41:21;8.80;75.10
8994;DHT22;4532;50.886;4.700;2024-02-26T06:43:54;8.70;75.10
8994;DHT22;4532;50.886;4.700;2024-02-26T06:46:26;8.70;75.10
8994;DHT22;4532;50.886;4.700;2024-02-26T06:48:57;8.70;75.10
8994;DHT22;4532;50.886;4.700;2024-02-26T06:51:25;8.70;75.20
8994;DHT22;4532;50.886;4.700;2024-02-26T06:53:52;8.70;75.20
8994;DHT22;4532;50.886;4.700;2024-02-26T06:56:22;8.60;75.00
8994;DHT22;4532;50.886;4.700;2024-02-26T06:58:54;8.60;75.40
8994;DHT22;4532;50.886;4.700;2024-02-26T07:01:24;8.60;75.10
8994;DHT22;4532;50.886;4.700;2024-02-26T07:03:51;8.60;75.40
8994;DHT22;4532;50.886;4.700;2024-02-26T07:06:18;8.60;75.50
8994;DHT22;4532;50.886;4.700;2024-02-26T07:08:48;8.60;75.40
8994;DHT22;4532;50.886;4.700;2024-02-26T07:11:17;8.60;76.40
8994;DHT22;4532;50.886;4.700;2024-02-26T07:13:49;8.60;75.70
8994;DHT22;4532;50.886;4.700;2024-02-26T07:16:19;8.60;75.40
8994;DHT22;4532;50.886;4.700;2024-02-26T07:18:48;8.60;75.40
8994;DHT22;4532;50.886;4.700;2024-02-26T07:21:18;8.60;75.50
8994;DHT22;4532;50.886;4.700;2024-02-26T07:23:48;8.60;75.60
8994;DHT22;4532;50.886;4.700;2024-02-26T07:26:18;8.60;75.70
8994;DHT22;4532;50.886;4.700;2024-02-26T07:28:52;8.60;75.40
8994;DHT22;4532;50.886;4.700;2024-02-26T07:31:19;8.60;75.80
8994;DHT22;4532;50.886;4.700;2024-02-26T07:33:47;8.50;75.50
8994;DHT22;4532;50.886;4.700;2024-02-26T07:36:14;8.50;75.60
8994;DHT22;4532;50.886;4.700;2024-02-26T07:38:41;8.50;75.90
8994;DHT22;4532;50.886;4.700;2024-02-26T07:41:11;8.50;75.60
8994;DHT22;4532;50.886;4.700;2024-02-26T07:43:38;8.50;76.20
8994;DHT22;4532;50.886;4.700;2024-02-26T07:46:06;8.50;76.10
8994;DHT22;4532;50.886;4.700;2024-02-26T07:48:35;8.50;76.00
8994;DHT22;4532;50.886;4.700;2024-02-26T07:51:03;8.50;75.90
8994;DHT22;4532;50.886;4.700;2024-02-26T07:53:36;8.50;75.90
8994;DHT22;4532;50.886;4.700;2024-02-26T07:56:06;8.50;75.90
8994;DHT22;4532;50.886;4.700;2024-02-26T07:58:33;8.50;75.90
8994;DHT22;4532;50.886;4.700;2024-02-26T08:01:02;8.40;76.00
8994;DHT22;4532;50.886;4.700;2024-02-26T08:03:32;8.50;76.00
8994;DHT22;4532;50.886;4.700;2024-02-26T08:06:00;8.50;76.20
8994;DHT22;4532;50.886;4.700;2024-02-26T08:08:29;8.50;76.00
8994;DHT22;4532;50.886;4.700;2024-02-26T08:10:59;8.40;76.10
8994;DHT22;4532;50.886;4.700;2024-02-26T08:13:29;8.50;76.20
8994;DHT22;4532;50.886;4.700;2024-02-26T08:15:56;8.40;76.50
8994;DHT22;4532;50.886;4.700;2024-02-26T08:18:23;8.40;76.20
8994;DHT22;4532;50.886;4.700;2024-02-26T08:20:53;8.40;76.40
8994;DHT22;4532;50.886;4.700;2024-02-26T08:23:20;8.40;76.50
8994;DHT22;4532;50.886;4.700;2024-02-26T08:25:51;8.40;76.30
8994;DHT22;4532;50.886;4.700;2024-02-26T08:28:21;8.40;76.40
8994;DHT22;4532;50.886;4.700;2024-02-26T08:30:53;8.40;76.50
8994;DHT22;4532;50.886;4.700;2024-02-26T08:33:20;8.40;76.60
8994;DHT22;4532;50.886;4.700;2024-02-26T08:35:48;8.40;76.60
8994;DHT22;4532;50.886;4.700;2024-02-26T08:38:15;8.40;76.40
8994;DHT22;4532;50.886;4.700;2024-02-26T08:40:43;8.40;76.40
8994;DHT22;4532;50.886;4.700;2024-02-26T08:43:10;8.40;76.60
8994;DHT22;4532;50.886;4.700;2024-02-26T08:45:37;8.40;76.40
8994;DHT22;4532;50.886;4.700;2024-02-26T08:48:05;8.40;76.60
8994;DHT22;4532;50.886;4.700;2024-02-26T08:50:32;8.40;76.60
8994;DHT22;4532;50.886;4.700;2024-02-26T08:52:59;8.40;76.60
8994;DHT22;4532;50.886;4.700;2024-02-26T08:55:32;8.50;76.70
8994;DHT22;4532;50.886;4.700;2024-02-26T08:58:01;8.40;76.60
8994;DHT22;4532;50.886;4.700;2024-02-26T09:00:31;8.40;76.50
8994;DHT22;4532;50.886;4.700;2024-02-26T09:02:58;8.40;76.60
8994;DHT22;4532;50.886;4.700;2024-02-26T09:05:31;8.40;76.70
8994;DHT22;4532;50.886;4.700;2024-02-26T09:07:58;8.40;76.80
8994;DHT22;4532;50.886;4.700;2024-02-26T09:10:28;8.40;76.80
8994;DHT22;4532;50.886;4.700;2024-02-26T09:12:57;8.40;76.80
8994;DHT22;4532;50.886;4.700;2024-02-26T09:15:29;8.40;76.80
8994;DHT22;4532;50.886;4.700;2024-02-26T09:17:57;8.40;76.80
8994;DHT22;4532;50.886;4.700;2024-02-26T09:20:24;8.40;76.90
8994;DHT22;4532;50.886;4.700;2024-02-26T09:22:53;8.40;77.30
8994;DHT22;4532;50.886;4.700;2024-02-26T09:25:26;8.40;76.80
8994;DHT22;4532;50.886;4.700;2024-02-26T09:27:54;8.40;76.70
8994;DHT22;4532;50.886;4.700;2024-02-26T09:30:24;8.40;76.90
8994;DHT22;4532;50.886;4.700;2024-02-26T09:32:51;8.40;76.90
8994;DHT22;4532;50.886;4.700;2024-02-26T09:35:19;8.40;77.60
8994;DHT22;4532;50.886;4.700;2024-02-26T09:37:53;8.40;77.00
8994;DHT22;4532;50.886;4.700;2024-02-26T09:40:21;8.40;76.90
8994;DHT22;4532;50.886;4.700;2024-02-26T09:42:55;8.40;77.00
8994;DHT22;4532;50.886;4.700;2024-02-26T09:45:25;8.40;77.10
8994;DHT22;4532;50.886;4.700;2024-02-26T09:47:56;8.40;78.40
8994;DHT22;4532;50.886;4.700;2024-02-26T09:50:24;8.40;78.20
8994;DHT22;4532;50.886;4.700;2024-02-26T09:52:52;8.40;78.20
8994;DHT22;4532;50.886;4.700;2024-02-26T09:55:21;8.40;77.90
8994;DHT22;4532;50.886;4.700;2024-02-26T09:57:53;8.40;77.90
8994;DHT22;4532;50.886;4.700;2024-02-26T10:00:25;8.40;77.40
8994;DHT22;4532;50.886;4.700;2024-02-26T10:02:59;8.40;77.20
8994;DHT22;4532;50.886;4.700;2024-02-26T10:05:34;8.40;77.40
8994;DHT22;4532;50.886;4.700;2024-02-26T10:08:04;8.30;77.30
8994;DHT22;4532;50.886;4.700;2024-02-26T10:10:34;8.30;77.20
8994;DHT22;4532;50.886;4.700;2024-02-26T10:13:02;8.30;77.70
8994;DHT22;4532;50.886;4.700;2024-02-26T10:15:31;8.40;77.60
8994;DHT22;4532;50.886;4.700;2024-02-26T10:18:00;8.30;77.40
8994;DHT22;4532;50.886;4.700;2024-02-26T10:20:33;8.40;77.50
8994;DHT22;4532;50.886;4.700;2024-02-26T10:23:03;8.30;77.50
8994;DHT22;4532;50.886;4.700;2024-02-26T10:25:32;8.30;77.40
8994;DHT22;4532;50.886;4.700;2024-02-26T10:28:01;8.30;77.60
8994;DHT22;4532;50.886;4.700;2024-02-26T10:30:36;8.30;77.60
8994;DHT22;4532;50.886;4.700;2024-02-26T10:33:03;8.30;77.80
8994;DHT22;4532;50.886;4.700;2024-02-26T10:35:31;8.30;78.20
8994;DHT22;4532;50.886;4.700;2024-02-26T10:38:01;8.30;77.70
8994;DHT22;4532;50.886;4.700;2024-02-26T10:40:30;8.20;77.80
8994;DHT22;4532;50.886;4.700;2024-02-26T10:42:58;8.20;77.70
8994;DHT22;4532;50.886;4.700;2024-02-26T10:45:27;8.20;77.80
8994;DHT22;4532;50.886;4.700;2024-02-26T10:47:57;8.20;77.80
8994;DHT22;4532;50.886;4.700;2024-02-26T10:50:27;8.20;78.10
8994;DHT22;4532;50.886;4.700;2024-02-26T10:52:55;8.20;78.00
8994;DHT22;4532;50.886;4.700;2024-02-26T10:55:22;8.20;78.10
8994;DHT22;4532;50.886;4.700;2024-02-26T10:57:54;8.20;78.00
8994;DHT22;4532;50.886;4.700;2024-02-26T11:00:22;8.20;77.90
8994;DHT22;4532;50.886;4.700;2024-02-26T11:02:50;8.20;77.90
8994;DHT22;4532;50.886;4.700;2024-02-26T11:05:20;8.20;78.10
8994;DHT22;4532;50.886;4.700;2024-02-26T11:07:48;8.20;78.10
8994;DHT22;4532;50.886;4.700;2024-02-26T11:10:24;8.20;78.10
8994;DHT22;4532;50.886;4.700;2024-02-26T11:12:56;8.20;78.30
8994;DHT22;4532;50.886;4.700;2024-02-26T11:15:29;8.20;78.10
8994;DHT22;4532;50.886;4.700;2024-02-26T11:17:56;8.20;78.00
8994;DHT22;4532;50.886;4.700;2024-02-26T11:20:28;8.20;78.10
8994;DHT22;4532;50.886;4.700;2024-02-26T11:22:59;8.20;78.00
8994;DHT22;4532;50.886;4.700;2024-02-26T11:25:26;8.20;78.80
8994;DHT22;4532;50.886;4.700;2024-02-26T11:27:58;8.10;78.00
8994;DHT22;4532;50.886;4.700;2024-02-26T11:30:31;8.10;78.00
8994;DHT22;4532;50.886;4.700;2024-02-26T11:33:04;8.10;78.00
8994;DHT22;4532;50.886;4.700;2024-02-26T11:35:32;8.10;78.10
8994;DHT22;4532;50.886;4.700;2024-02-26T11:37:59;8.10;78.10
8994;DHT22;4532;50.886;4.700;2024-02-26T11:40:31;8.10;78.20
8994;DHT22;4532;50.886;4.700;2024-02-26T11:43:00;8.00;78.20
8994;DHT22;4532;50.886;4.700;2024-02-26T11:48:15;8.00;78.60
8994;DHT22;4532;50.886;4.700;2024-02-26T11:55:49;8.00;78.20
8994;DHT22;4532;50.886;4.700;2024-02-26T11:58:39;8.00;78.20
8994;DHT22;4532;50.886;4.700;2024-02-26T12:04:19;7.90;78.40
8994;DHT22;4532;50.886;4.700;2024-02-26T12:09:35;7.90;78.60
8994;DHT22;4532;50.886;4.700;2024-02-26T12:12:07;7.90;78.60
8994;DHT22;4532;50.886;4.700;2024-02-26T12:14:51;7.90;78.50
8994;DHT22;4532;50.886;4.700;2024-02-26T12:17:23;7.90;78.50
8994;DHT22;4532;50.886;4.700;2024-02-26T12:19:51;7.90;78.50
8994;DHT22;4532;50.886;4.700;2024-02-26T12:22:20;7.90;78.60
8994;DHT22;4532;50.886;4.700;2024-02-26T12:24:58;7.90;78.60
8994;DHT22;4532;50.886;4.700;2024-02-26T12:27:25;7.90;78.70
8994;DHT22;4532;50.886;4.700;2024-02-26T12:29:55;7.90;78.80
8994;DHT22;4532;50.886;4.700;2024-02-26T12:32:23;7.90;79.40
8994;DHT22;4532;50.886;4.700;2024-02-26T12:34:50;8.00;78.80
8994;DHT22;4532;50.886;4.700;2024-02-26T12:37:20;8.00;78.60
8994;DHT22;4532;50.886;4.700;2024-02-26T12:39:48;7.90;78.70
8994;DHT22;4532;50.886;4.700;2024-02-26T12:42:19;8.00;78.70
8994;DHT22;4532;50.886;4.700;2024-02-26T12:44:49;8.00;78.90
8994;DHT22;4532;50.886;4.700;2024-02-26T12:47:21;7.90;78.90
8994;DHT22;4532;50.886;4.700;2024-02-26T12:49:49;7.90;78.90
8994;DHT22;4532;50.886;4.700;2024-02-26T12:52:17;7.90;79.10
8994;DHT22;4532;50.886;4.700;2024-02-26T12:54:49;7.90;78.90
8994;DHT22;4532;50.886;4.700;2024-02-26T12:57:19;7.90;79.10
8994;DHT22;4532;50.886;4.700;2024-02-26T12:59:46;7.90;79.20
8994;DHT22;4532;50.886;4.700;2024-02-26T13:02:16;7.90;80.10
8994;DHT22;4532;50.886;4.700;2024-02-26T13:04:44;7.90;79.20
8994;DHT22;4532;50.886;4.700;2024-02-26T13:07:18;7.90;80.00
8994;DHT22;4532;50.886;4.700;2024-02-26T13:09:46;7.90;79.20
8994;DHT22;4532;50.886;4.700;2024-02-26T13:12:13;7.90;79.50
8994;DHT22;4532;50.886;4.700;2024-02-26T13:14:41;7.90;79.30
8994;DHT22;4532;50.886;4.700;2024-02-26T13:17:10;7.80;79.50
8994;DHT22;4532;50.886;4.700;2024-02-26T13:19:49;7.90;79.60
8994;DHT22;4532;50.886;4.700;2024-02-26T13:22:20;7.80;79.40
8994;DHT22;4532;50.886;4.700;2024-02-26T13:24:56;7.80;79.40
8994;DHT22;4532;50.886;4.700;2024-02-26T13:27:24;7.80;79.50
8994;DHT22;4532;50.886;4.700;2024-02-26T13:30:11;7.90;79.70
8994;DHT22;4532;50.886;4.700;2024-02-26T13:32:40;7.90;79.40
8994;DHT22;4532;50.886;4.700;2024-02-26T13:35:14;7.90;79.30
8994;DHT22;4532;50.886;4.700;2024-02-26T13:37:41;7.80;79.40
8994;DHT22;4532;50.886;4.700;2024-02-26T13:40:10;7.80;79.30
8994;DHT22;4532;50.886;4.700;2024-02-26T13:42:42;7.90;79.50
8994;DHT22;4532;50.886;4.700;2024-02-26T13:45:09;7.90;79.40
8994;DHT22;4532;50.886;4.700;2024-02-26T13:47:37;7.90;79.50
8994;DHT22;4532;50.886;4.700;2024-02-26T13:50:05;7.90;79.50
8994;DHT22;4532;50.886;4.700;2024-02-26T13:52:37;7.90;79.50
8994;DHT22;4532;50.886;4.700;2024-02-26T13:55:05;7.90;79.70
8994;DHT22;4532;50.886;4.700;2024-02-26T13:57:34;7.90;79.60
8994;DHT22;4532;50.886;4.700;2024-02-26T14:00:02;7.90;79.50
8994;DHT22;4532;50.886;4.700;2024-02-26T14:02:30;7.90;79.60
8994;DHT22;4532;50.886;4.700;2024-02-26T14:05:02;7.90;79.50
8994;DHT22;4532;50.886;4.700;2024-02-26T14:07:32;7.90;79.80
8994;DHT22;4532;50.886;4.700;2024-02-26T14:10:02;7.90;79.60
8994;DHT22;4532;50.886;4.700;2024-02-26T14:12:32;7.90;79.50
8994;DHT22;4532;50.886;4.700;2024-02-26T14:15:04;7.90;79.70
8994;DHT22;4532;50.886;4.700;2024-02-26T14:17:32;7.90;79.80
8994;DHT22;4532;50.886;4.700;2024-02-26T14:20:04;7.90;79.90
8994;DHT22;4532;50.886;4.700;2024-02-26T14:22:32;7.90;79.90
8994;DHT22;4532;50.886;4.700;2024-02-26T14:24:59;7.90;80.00
8994;DHT22;4532;50.886;4.700;2024-02-26T14:27:29;7.90;80.40
8994;DHT22;4532;50.886;4.700;2024-02-26T14:29:56;7.90;79.70
8994;DHT22;4532;50.886;4.700;2024-02-26T14:32:23;7.90;79.70
8994;DHT22;4532;50.886;4.700;2024-02-26T14:34:53;7.90;79.70
8994;DHT22;4532;50.886;4.700;2024-02-26T14:37:20;7.90;79.90
8994;DHT22;4532;50.886;4.700;2024-02-26T14:39:47;7.90;79.90
8994;DHT22;4532;50.886;4.700;2024-02-26T14:42:16;7.90;79.90
8994;DHT22;4532;50.886;4.700;2024-02-26T14:44:47;7.90;79.90
8994;DHT22;4532;50.886;4.700;2024-02-26T14:47:15;7.90;79.90
8994;DHT22;4532;50.886;4.700;2024-02-26T14:49:42;7.90;80.10
8994;DHT22;4532;50.886;4.700;2024-02-26T14:52:12;7.90;79.90
8994;DHT22;4532;50.886;4.700;2024-02-26T14:54:41;7.90;80.00
8994;DHT22;4532;50.886;4.700;2024-02-26T14:57:09;7.90;80.00
8994;DHT22;4532;50.886;4.700;2024-02-26T14:59:38;7.90;80.00
8994;DHT22;4532;50.886;4.700;2024-02-26T15:02:08;7.90;80.10
8994;DHT22;4532;50.886;4.700;2024-02-26T15:04:37;8.00;80.20
8994;DHT22;4532;50.886;4.700;2024-02-26T15:07:07;7.90;80.20
8994;DHT22;4532;50.886;4.700;2024-02-26T15:09:42;7.90;80.30
8994;DHT22;4532;50.886;4.700;2024-02-26T15:12:13;7.90;80.40
8994;DHT22;4532;50.886;4.700;2024-02-26T15:14:42;8.00;80.30
8994;DHT22;4532;50.886;4.700;2024-02-26T15:17:12;7.90;80.50
8994;DHT22;4532;50.886;4.700;2024-02-26T15:19:40;8.00;80.20
8994;DHT22;4532;50.886;4.700;2024-02-26T15:22:07;8.00;80.40
8994;DHT22;4532;50.886;4.700;2024-02-26T15:24:35;8.00;80.40
8994;DHT22;4532;50.886;4.700;2024-02-26T15:27:06;8.00;80.40
8994;DHT22;4532;50.886;4.700;2024-02-26T15:29:34;8.00;80.40
8994;DHT22;4532;50.886;4.700;2024-02-26T15:32:05;8.00;80.40
8994;DHT22;4532;50.886;4.700;2024-02-26T15:34:32;8.00;80.40
8994;DHT22;4532;50.886;4.700;2024-02-26T15:37:00;8.00;80.80
8994;DHT22;4532;50.886;4.700;2024-02-26T15:39:29;8.10;80.50
8994;DHT22;4532;50.886;4.700;2024-02-26T15:42:02;8.00;80.40
8994;DHT22;4532;50.886;4.700;2024-02-26T15:44:38;8.00;80.40
8994;DHT22;4532;50.886;4.700;2024-02-26T15:47:06;8.00;80.40
8994;DHT22;4532;50.886;4.700;2024-02-26T15:49:37;8.00;80.60
8994;DHT22;4532;50.886;4.700;2024-02-26T15:52:07;8.10;80.60
8994;DHT22;4532;50.886;4.700;2024-02-26T15:54:40;8.00;80.60
8994;DHT22;4532;50.886;4.700;2024-02-26T15:57:07;8.00;81.00
8994;DHT22;4532;50.886;4.700;2024-02-26T15:59:42;8.10;80.70
8994;DHT22;4532;50.886;4.700;2024-02-26T16:02:12;8.10;80.90
8994;DHT22;4532;50.886;4.700;2024-02-26T16:04:41;8.00;80.70
8994;DHT22;4532;50.886;4.700;2024-02-26T16:07:20;8.00;80.80
8994;DHT22;4532;50.886;4.700;2024-02-26T16:09:52;8.00;80.80
8994;DHT22;4532;50.886;4.700;2024-02-26T16:13:08;8.00;80.90
8994;DHT22;4532;50.886;4.700;2024-02-26T16:15:18;8.00;81.00
8994;DHT22;4532;50.886;4.700;2024-02-26T16:17:48;8.00;80.80
8994;DHT22;4532;50.886;4.700;2024-02-26T16:20:20;8.00;80.90
8994;DHT22;4532;50.886;4.700;2024-02-26T16:22:48;8.00;81.00
8994;DHT22;4532;50.886;4.700;2024-02-26T16:25:16;8.00;81.00
8994;DHT22;4532;50.886;4.700;2024-02-26T16:27:46;8.00;81.10
8994;DHT22;4532;50.886;4.700;2024-02-26T16:30:13;8.00;81.30
8994;DHT22;4532;50.886;4.700;2024-02-26T16:32:40;8.00;81.10
8994;DHT22;4532;50.886;4.700;2024-02-26T16:35:08;8.00;81.00
8994;DHT22;4532;50.886;4.700;2024-02-26T16:37:38;8.00;81.00
8994;DHT22;4532;50.886;4.700;2024-02-26T16:40:08;8.00;81.30
8994;DHT22;4532;50.886;4.700;2024-02-26T16:42:42;8.00;81.20
8994;DHT22;4532;50.886;4.700;2024-02-26T16:45:14;8.00;81.20